sensor_id;sensor_type;location;lat;lon;timestamp;P1;durP1;ratioP1;P2;durP2;ratioP2
10645;SDS011;5371;49.782;9.932;2022-09-09T00:00:24;3.28;;;1.40;;
10645;SDS011;5371;49.782;9.932;2022-09-09T00:02:55;2.90;;;1.42;;
10645;SDS011;5371;49.782;9.932;2022-09-09T00:05:31;4.80;;;1.40;;
10645;SDS011;5371;49.782;9.932;2022-09-09T00:08:07;2.38;;;1.38;;
10645;SDS011;5371;49.782;9.932;2022-09-09T00:10:41;3.35;;;1.30;;
10645;SDS011;5371;49.782;9.932;2022-09-09T00:13:13;3.10;;;1.30;;
10645;SDS011;5371;49.782;9.932;2022-09-09T00:15:46;3.33;;;1.50;;
10645;SDS011;5371;49.782;9.932;2022-09-09T00:18:24;4.38;;;1.35;;
10645;SDS011;5371;49.782;9.932;2022-09-09T00:21:00;4.68;;;1.60;;
10645;SDS011;5371;49.782;9.932;2022-09-09T00:23:33;3.10;;;1.60;;
10645;SDS011;5371;49.782;9.932;2022-09-09T00:26:04;7.22;;;1.55;;
10645;SDS011;5371;49.782;9.932;2022-09-09T00:28:38;2.60;;;1.33;;
10645;SDS011;5371;49.782;9.932;2022-09-09T00:31:11;5.10;;;1.63;;
10645;SDS011;5371;49.782;9.932;2022-09-09T00:33:40;2.92;;;1.80;;
10645;SDS011;5371;49.782;9.932;2022-09-09T00:36:12;5.20;;;1.50;;
10645;SDS011;5371;49.782;9.932;2022-09-09T00:38:42;3.40;;;1.38;;
10645;SDS011;5371;49.782;9.932;2022-09-09T00:41:14;3.25;;;1.45;;
10645;SDS011;5371;49.782;9.932;2022-09-09T00:43:49;3.70;;;1.42;;
10645;SDS011;5371;49.782;9.932;2022-09-09T00:46:26;3.60;;;1.40;;
10645;SDS011;5371;49.782;9.932;2022-09-09T00:49:12;4.55;;;1.50;;
10645;SDS011;5371;49.782;9.932;2022-09-09T00:51:48;3.05;;;1.80;;
10645;SDS011;5371;49.782;9.932;2022-09-09T00:54:31;2.97;;;1.52;;
10645;SDS011;5371;49.782;9.932;2022-09-09T00:57:07;2.13;;;1.45;;
10645;SDS011;5371;49.782;9.932;2022-09-09T00:59:47;2.15;;;1.30;;
10645;SDS011;5371;49.782;9.932;2022-09-09T01:02:21;3.33;;;1.42;;
10645;SDS011;5371;49.782;9.932;2022-09-09T01:04:58;2.35;;;1.30;;
10645;SDS011;5371;49.782;9.932;2022-09-09T01:07:33;2.08;;;1.02;;
10645;SDS011;5371;49.782;9.932;2022-09-09T01:10:00;2.38;;;1.20;;
10645;SDS011;5371;49.782;9.932;2022-09-09T01:12:37;1.33;;;0.90;;
10645;SDS011;5371;49.782;9.932;2022-09-09T01:15:09;3.00;;;1.35;;
10645;SDS011;5371;49.782;9.932;2022-09-09T01:17:50;4.25;;;1.10;;
10645;SDS011;5371;49.782;9.932;2022-09-09T01:20:23;2.90;;;1.00;;
10645;SDS011;5371;49.782;9.932;2022-09-09T01:23:04;2.47;;;1.10;;
10645;SDS011;5371;49.782;9.932;2022-09-09T01:28:53;4.47;;;1.13;;
10645;SDS011;5371;49.782;9.932;2022-09-09T01:31:30;2.05;;;1.17;;
10645;SDS011;5371;49.782;9.932;2022-09-09T01:34:01;2.25;;;1.10;;
10645;SDS011;5371;49.782;9.932;2022-09-09T01:36:31;5.40;;;1.30;;
10645;SDS011;5371;49.782;9.932;2022-09-09T01:39:04;3.65;;;1.35;;
10645;SDS011;5371;49.782;9.932;2022-09-09T01:41:33;2.92;;;1.23;;
10645;SDS011;5371;49.782;9.932;2022-09-09T01:44:06;2.55;;;1.25;;
10645;SDS011;5371;49.782;9.932;2022-09-09T01:46:36;4.88;;;1.30;;
10645;SDS011;5371;49.782;9.932;2022-09-09T01:49:06;2.40;;;1.40;;
10645;SDS011;5371;49.782;9.932;2022-09-09T01:51:34;3.15;;;1.35;;
10645;SDS011;5371;49.782;9.932;2022-09-09T01:54:05;3.67;;;1.20;;
10645;SDS011;5371;49.782;9.932;2022-09-09T01:56:38;3.20;;;1.40;;
10645;SDS011;5371;49.782;9.932;2022-09-09T01:59:18;2.22;;;1.10;;
10645;SDS011;5371;49.782;9.932;2022-09-09T02:02:02;3.70;;;1.35;;
10645;SDS011;5371;49.782;9.932;2022-09-09T02:04:38;3.90;;;1.55;;
10645;SDS011;5371;49.782;9.932;2022-09-09T02:07:15;2.88;;;1.40;;
10645;SDS011;5371;49.782;9.932;2022-09-09T02:09:56;5.60;;;1.67;;
10645;SDS011;5371;49.782;9.932;2022-09-09T02:12:28;3.35;;;1.50;;
10645;SDS011;5371;49.782;9.932;2022-09-09T02:15:00;5.25;;;1.63;;
10645;SDS011;5371;49.782;9.932;2022-09-09T02:17:40;7.25;;;1.45;;
10645;SDS011;5371;49.782;9.932;2022-09-09T02:20:13;3.85;;;1.50;;
10645;SDS011;5371;49.782;9.932;2022-09-09T02:22:54;3.92;;;1.58;;
10645;SDS011;5371;49.782;9.932;2022-09-09T02:25:24;2.45;;;1.30;;
10645;SDS011;5371;49.782;9.932;2022-09-09T02:28:00;5.90;;;1.52;;
10645;SDS011;5371;49.782;9.932;2022-09-09T02:30:29;4.13;;;1.73;;
10645;SDS011;5371;49.782;9.932;2022-09-09T02:33:00;3.20;;;1.58;;
10645;SDS011;5371;49.782;9.932;2022-09-09T02:35:42;6.28;;;1.73;;
10645;SDS011;5371;49.782;9.932;2022-09-09T02:38:13;7.10;;;1.70;;
10645;SDS011;5371;49.782;9.932;2022-09-09T02:40:53;3.17;;;1.60;;
10645;SDS011;5371;49.782;9.932;2022-09-09T02:43:22;6.47;;;1.85;;
10645;SDS011;5371;49.782;9.932;2022-09-09T02:45:51;4.15;;;1.77;;
10645;SDS011;5371;49.782;9.932;2022-09-09T02:48:26;2.67;;;1.50;;
10645;SDS011;5371;49.782;9.932;2022-09-09T02:51:03;4.88;;;1.67;;
10645;SDS011;5371;49.782;9.932;2022-09-09T02:53:38;5.15;;;1.80;;
10645;SDS011;5371;49.782;9.932;2022-09-09T02:56:15;3.45;;;1.70;;
10645;SDS011;5371;49.782;9.932;2022-09-09T02:58:47;4.53;;;1.73;;
10645;SDS011;5371;49.782;9.932;2022-09-09T03:01:17;5.47;;;1.70;;
10645;SDS011;5371;49.782;9.932;2022-09-09T03:03:44;2.67;;;1.73;;
10645;SDS011;5371;49.782;9.932;2022-09-09T03:06:14;3.42;;;1.45;;
10645;SDS011;5371;49.782;9.932;2022-09-09T03:08:44;5.25;;;1.70;;
10645;SDS011;5371;49.782;9.932;2022-09-09T03:11:11;2.08;;;1.48;;
10645;SDS011;5371;49.782;9.932;2022-09-09T03:13:40;3.33;;;1.80;;
10645;SDS011;5371;49.782;9.932;2022-09-09T03:16:10;4.03;;;1.75;;
10645;SDS011;5371;49.782;9.932;2022-09-09T03:18:42;4.22;;;1.70;;
10645;SDS011;5371;49.782;9.932;2022-09-09T03:21:11;3.17;;;1.60;;
10645;SDS011;5371;49.782;9.932;2022-09-09T03:23:40;4.88;;;1.90;;
10645;SDS011;5371;49.782;9.932;2022-09-09T03:26:07;5.72;;;2.00;;
10645;SDS011;5371;49.782;9.932;2022-09-09T03:28:40;7.53;;;1.73;;
10645;SDS011;5371;49.782;9.932;2022-09-09T03:31:07;3.92;;;1.60;;
10645;SDS011;5371;49.782;9.932;2022-09-09T03:33:40;3.63;;;1.70;;
10645;SDS011;5371;49.782;9.932;2022-09-09T03:36:10;6.70;;;1.90;;
10645;SDS011;5371;49.782;9.932;2022-09-09T03:38:37;4.20;;;1.80;;
10645;SDS011;5371;49.782;9.932;2022-09-09T03:41:05;3.20;;;1.73;;
10645;SDS011;5371;49.782;9.932;2022-09-09T03:43:33;4.32;;;1.70;;
10645;SDS011;5371;49.782;9.932;2022-09-09T03:46:00;3.13;;;1.70;;
10645;SDS011;5371;49.782;9.932;2022-09-09T03:48:28;4.55;;;1.98;;
10645;SDS011;5371;49.782;9.932;2022-09-09T03:50:57;3.72;;;1.75;;
10645;SDS011;5371;49.782;9.932;2022-09-09T03:53:28;2.97;;;1.70;;
10645;SDS011;5371;49.782;9.932;2022-09-09T03:55:56;4.20;;;1.60;;
10645;SDS011;5371;49.782;9.932;2022-09-09T03:58:27;4.10;;;1.73;;
10645;SDS011;5371;49.782;9.932;2022-09-09T04:01:01;4.82;;;1.70;;
10645;SDS011;5371;49.782;9.932;2022-09-09T04:03:29;7.25;;;1.88;;
10645;SDS011;5371;49.782;9.932;2022-09-09T04:05:59;5.13;;;2.00;;
10645;SDS011;5371;49.782;9.932;2022-09-09T04:08:28;4.95;;;1.70;;
10645;SDS011;5371;49.782;9.932;2022-09-09T04:10:56;4.75;;;1.90;;
10645;SDS011;5371;49.782;9.932;2022-09-09T04:13:25;6.85;;;2.00;;
10645;SDS011;5371;49.782;9.932;2022-09-09T04:15:55;3.58;;;1.83;;
10645;SDS011;5371;49.782;9.932;2022-09-09T04:18:24;4.03;;;1.77;;
10645;SDS011;5371;49.782;9.932;2022-09-09T04:20:52;3.92;;;1.80;;
10645;SDS011;5371;49.782;9.932;2022-09-09T04:23:23;4.40;;;1.70;;
10645;SDS011;5371;49.782;9.932;2022-09-09T04:25:52;3.30;;;1.77;;
10645;SDS011;5371;49.782;9.932;2022-09-09T04:28:21;6.15;;;1.92;;
10645;SDS011;5371;49.782;9.932;2022-09-09T04:30:50;2.67;;;1.60;;
10645;SDS011;5371;49.782;9.932;2022-09-09T04:33:17;2.47;;;1.60;;
10645;SDS011;5371;49.782;9.932;2022-09-09T04:35:47;8.95;;;1.90;;
10645;SDS011;5371;49.782;9.932;2022-09-09T04:38:17;4.05;;;1.80;;
10645;SDS011;5371;49.782;9.932;2022-09-09T04:40:47;4.63;;;2.10;;
10645;SDS011;5371;49.782;9.932;2022-09-09T04:43:14;4.18;;;2.20;;
10645;SDS011;5371;49.782;9.932;2022-09-09T04:45:43;5.07;;;2.30;;
10645;SDS011;5371;49.782;9.932;2022-09-09T04:48:13;6.43;;;1.90;;
10645;SDS011;5371;49.782;9.932;2022-09-09T04:50:40;4.22;;;1.80;;
10645;SDS011;5371;49.782;9.932;2022-09-09T04:53:10;3.92;;;1.95;;
10645;SDS011;5371;49.782;9.932;2022-09-09T04:55:38;5.32;;;1.90;;
10645;SDS011;5371;49.782;9.932;2022-09-09T04:58:07;3.92;;;1.80;;
10645;SDS011;5371;49.782;9.932;2022-09-09T05:00:35;2.67;;;1.80;;
10645;SDS011;5371;49.782;9.932;2022-09-09T05:03:05;4.13;;;1.90;;
10645;SDS011;5371;49.782;9.932;2022-09-09T05:05:33;5.32;;;1.95;;
10645;SDS011;5371;49.782;9.932;2022-09-09T05:08:02;4.00;;;1.80;;
10645;SDS011;5371;49.782;9.932;2022-09-09T05:10:30;4.57;;;1.83;;
10645;SDS011;5371;49.782;9.932;2022-09-09T05:12:58;4.53;;;1.80;;
10645;SDS011;5371;49.782;9.932;2022-09-09T05:15:28;5.95;;;2.03;;
10645;SDS011;5371;49.782;9.932;2022-09-09T05:17:56;4.70;;;1.90;;
10645;SDS011;5371;49.782;9.932;2022-09-09T05:20:24;3.25;;;1.80;;
10645;SDS011;5371;49.782;9.932;2022-09-09T05:22:52;6.03;;;2.00;;
10645;SDS011;5371;49.782;9.932;2022-09-09T05:25:19;5.63;;;2.00;;
10645;SDS011;5371;49.782;9.932;2022-09-09T05:27:48;4.25;;;2.05;;
10645;SDS011;5371;49.782;9.932;2022-09-09T05:30:15;17.58;;;2.00;;
10645;SDS011;5371;49.782;9.932;2022-09-09T05:32:46;3.38;;;1.88;;
10645;SDS011;5371;49.782;9.932;2022-09-09T05:35:14;4.22;;;1.77;;
10645;SDS011;5371;49.782;9.932;2022-09-09T05:37:43;4.00;;;1.75;;
10645;SDS011;5371;49.782;9.932;2022-09-09T05:40:11;4.57;;;2.00;;
10645;SDS011;5371;49.782;9.932;2022-09-09T05:42:39;4.15;;;1.85;;
10645;SDS011;5371;49.782;9.932;2022-09-09T05:45:07;2.67;;;1.60;;
10645;SDS011;5371;49.782;9.932;2022-09-09T05:47:36;4.28;;;1.63;;
10645;SDS011;5371;49.782;9.932;2022-09-09T05:50:07;4.30;;;1.80;;
10645;SDS011;5371;49.782;9.932;2022-09-09T05:52:35;5.57;;;1.75;;
10645;SDS011;5371;49.782;9.932;2022-09-09T05:55:04;4.15;;;1.65;;
10645;SDS011;5371;49.782;9.932;2022-09-09T05:57:31;4.00;;;1.60;;
10645;SDS011;5371;49.782;9.932;2022-09-09T05:59:59;6.70;;;1.90;;
10645;SDS011;5371;49.782;9.932;2022-09-09T06:02:28;4.65;;;1.65;;
10645;SDS011;5371;49.782;9.932;2022-09-09T06:04:55;4.25;;;1.63;;
10645;SDS011;5371;49.782;9.932;2022-09-09T06:07:24;4.03;;;1.60;;
10645;SDS011;5371;49.782;9.932;2022-09-09T06:09:51;4.57;;;1.70;;
10645;SDS011;5371;49.782;9.932;2022-09-09T06:12:18;4.97;;;1.80;;
10645;SDS011;5371;49.782;9.932;2022-09-09T06:14:46;4.15;;;1.50;;
10645;SDS011;5371;49.782;9.932;2022-09-09T06:17:14;2.10;;;1.50;;
10645;SDS011;5371;49.782;9.932;2022-09-09T06:19:41;4.90;;;1.75;;
10645;SDS011;5371;49.782;9.932;2022-09-09T06:22:07;3.25;;;1.40;;
10645;SDS011;5371;49.782;9.932;2022-09-09T06:24:39;4.90;;;1.60;;
10645;SDS011;5371;49.782;9.932;2022-09-09T06:27:06;4.32;;;1.40;;
10645;SDS011;5371;49.782;9.932;2022-09-09T06:29:35;2.28;;;1.33;;
10645;SDS011;5371;49.782;9.932;2022-09-09T06:32:02;3.40;;;1.38;;
10645;SDS011;5371;49.782;9.932;2022-09-09T06:34:30;2.95;;;1.30;;
10645;SDS011;5371;49.782;9.932;2022-09-09T06:36:58;4.00;;;1.30;;
10645;SDS011;5371;49.782;9.932;2022-09-09T06:39:31;2.15;;;1.30;;
10645;SDS011;5371;49.782;9.932;2022-09-09T06:42:00;4.88;;;1.40;;
10645;SDS011;5371;49.782;9.932;2022-09-09T06:44:45;4.60;;;1.42;;
10645;SDS011;5371;49.782;9.932;2022-09-09T06:47:20;3.53;;;1.30;;
10645;SDS011;5371;49.782;9.932;2022-09-09T06:49:47;3.55;;;1.40;;
10645;SDS011;5371;49.782;9.932;2022-09-09T06:52:15;4.45;;;1.40;;
10645;SDS011;5371;49.782;9.932;2022-09-09T06:54:43;3.60;;;1.20;;
10645;SDS011;5371;49.782;9.932;2022-09-09T06:57:14;3.40;;;1.20;;
10645;SDS011;5371;49.782;9.932;2022-09-09T06:59:41;3.33;;;1.40;;
10645;SDS011;5371;49.782;9.932;2022-09-09T07:02:08;3.72;;;1.10;;
10645;SDS011;5371;49.782;9.932;2022-09-09T07:04:35;3.05;;;1.25;;
10645;SDS011;5371;49.782;9.932;2022-09-09T07:07:03;4.40;;;1.10;;
10645;SDS011;5371;49.782;9.932;2022-09-09T07:09:30;4.10;;;1.10;;
10645;SDS011;5371;49.782;9.932;2022-09-09T07:11:57;4.53;;;1.33;;
10645;SDS011;5371;49.782;9.932;2022-09-09T07:14:30;2.03;;;1.00;;
10645;SDS011;5371;49.782;9.932;2022-09-09T07:17:00;1.90;;;1.00;;
10645;SDS011;5371;49.782;9.932;2022-09-09T07:19:34;1.98;;;1.02;;
10645;SDS011;5371;49.782;9.932;2022-09-09T07:22:03;1.80;;;0.90;;
10645;SDS011;5371;49.782;9.932;2022-09-09T07:24:32;4.70;;;1.10;;
10645;SDS011;5371;49.782;9.932;2022-09-09T07:26:59;2.28;;;1.05;;
10645;SDS011;5371;49.782;9.932;2022-09-09T07:29:26;2.20;;;1.10;;
10645;SDS011;5371;49.782;9.932;2022-09-09T07:31:54;2.38;;;0.98;;
10645;SDS011;5371;49.782;9.932;2022-09-09T07:34:27;2.92;;;1.00;;
10645;SDS011;5371;49.782;9.932;2022-09-09T07:36:55;2.00;;;0.90;;
10645;SDS011;5371;49.782;9.932;2022-09-09T07:39:23;2.13;;;0.90;;
10645;SDS011;5371;49.782;9.932;2022-09-09T07:41:52;2.83;;;1.10;;
10645;SDS011;5371;49.782;9.932;2022-09-09T07:44:22;5.38;;;1.30;;
10645;SDS011;5371;49.782;9.932;2022-09-09T07:47:13;4.25;;;0.98;;
10645;SDS011;5371;49.782;9.932;2022-09-09T07:49:44;3.10;;;1.00;;
10645;SDS011;5371;49.782;9.932;2022-09-09T07:52:13;4.78;;;1.20;;
10645;SDS011;5371;49.782;9.932;2022-09-09T07:54:43;5.80;;;1.10;;
10645;SDS011;5371;49.782;9.932;2022-09-09T07:57:12;2.30;;;0.90;;
10645;SDS011;5371;49.782;9.932;2022-09-09T07:59:39;2.63;;;0.93;;
10645;SDS011;5371;49.782;9.932;2022-09-09T08:02:11;5.40;;;3.15;;
10645;SDS011;5371;49.782;9.932;2022-09-09T08:04:46;2.85;;;1.02;;
10645;SDS011;5371;49.782;9.932;2022-09-09T08:07:15;3.50;;;1.20;;
10645;SDS011;5371;49.782;9.932;2022-09-09T08:09:49;3.55;;;1.25;;
10645;SDS011;5371;49.782;9.932;2022-09-09T08:12:21;4.65;;;1.10;;
10645;SDS011;5371;49.782;9.932;2022-09-09T08:14:49;3.90;;;1.17;;
10645;SDS011;5371;49.782;9.932;2022-09-09T08:17:18;2.67;;;0.90;;
10645;SDS011;5371;49.782;9.932;2022-09-09T08:19:45;2.88;;;1.10;;
10645;SDS011;5371;49.782;9.932;2022-09-09T08:22:17;3.25;;;1.02;;
10645;SDS011;5371;49.782;9.932;2022-09-09T08:24:45;3.45;;;1.20;;
10645;SDS011;5371;49.782;9.932;2022-09-09T08:27:12;4.25;;;1.00;;
10645;SDS011;5371;49.782;9.932;2022-09-09T08:29:40;3.53;;;1.10;;
10645;SDS011;5371;49.782;9.932;2022-09-09T08:32:09;2.38;;;1.10;;
10645;SDS011;5371;49.782;9.932;2022-09-09T08:34:40;3.90;;;1.30;;
10645;SDS011;5371;49.782;9.932;2022-09-09T08:37:12;3.88;;;1.20;;
10645;SDS011;5371;49.782;9.932;2022-09-09T08:39:40;4.03;;;1.17;;
10645;SDS011;5371;49.782;9.932;2022-09-09T08:42:11;4.47;;;1.33;;
10645;SDS011;5371;49.782;9.932;2022-09-09T08:45:04;3.63;;;1.23;;
10645;SDS011;5371;49.782;9.932;2022-09-09T08:47:42;2.63;;;0.90;;
10645;SDS011;5371;49.782;9.932;2022-09-09T08:50:23;4.22;;;1.20;;
10645;SDS011;5371;49.782;9.932;2022-09-09T08:53:00;3.42;;;1.05;;
10645;SDS011;5371;49.782;9.932;2022-09-09T08:55:35;2.80;;;1.20;;
10645;SDS011;5371;49.782;9.932;2022-09-09T08:58:12;3.97;;;1.40;;
10645;SDS011;5371;49.782;9.932;2022-09-09T09:00:46;3.72;;;1.20;;
10645;SDS011;5371;49.782;9.932;2022-09-09T09:03:29;2.88;;;1.27;;
10645;SDS011;5371;49.782;9.932;2022-09-09T09:06:09;4.25;;;1.30;;
10645;SDS011;5371;49.782;9.932;2022-09-09T09:08:50;3.28;;;1.20;;
10645;SDS011;5371;49.782;9.932;2022-09-09T09:11:24;3.70;;;1.30;;
10645;SDS011;5371;49.782;9.932;2022-09-09T09:13:52;3.90;;;1.30;;
10645;SDS011;5371;49.782;9.932;2022-09-09T09:16:23;4.25;;;1.13;;
10645;SDS011;5371;49.782;9.932;2022-09-09T09:18:59;3.75;;;1.30;;
10645;SDS011;5371;49.782;9.932;2022-09-09T09:21:33;5.15;;;1.30;;
10645;SDS011;5371;49.782;9.932;2022-09-09T09:24:04;4.55;;;1.40;;
10645;SDS011;5371;49.782;9.932;2022-09-09T09:26:41;2.78;;;1.17;;
10645;SDS011;5371;49.782;9.932;2022-09-09T09:29:10;5.53;;;1.60;;
10645;SDS011;5371;49.782;9.932;2022-09-09T09:31:41;3.80;;;1.23;;
10645;SDS011;5371;49.782;9.932;2022-09-09T09:34:14;3.58;;;1.30;;
10645;SDS011;5371;49.782;9.932;2022-09-09T09:36:42;5.07;;;1.58;;
10645;SDS011;5371;49.782;9.932;2022-09-09T09:39:22;3.95;;;1.50;;
10645;SDS011;5371;49.782;9.932;2022-09-09T09:41:50;3.80;;;1.33;;
10645;SDS011;5371;49.782;9.932;2022-09-09T09:44:23;3.53;;;1.20;;
10645;SDS011;5371;49.782;9.932;2022-09-09T09:46:52;3.30;;;1.40;;
10645;SDS011;5371;49.782;9.932;2022-09-09T09:49:20;3.40;;;1.15;;
10645;SDS011;5371;49.782;9.932;2022-09-09T09:51:48;4.45;;;1.35;;
10645;SDS011;5371;49.782;9.932;2022-09-09T09:54:17;3.42;;;1.20;;
10645;SDS011;5371;49.782;9.932;2022-09-09T09:56:52;5.10;;;1.40;;
10645;SDS011;5371;49.782;9.932;2022-09-09T09:59:21;4.63;;;1.40;;
10645;SDS011;5371;49.782;9.932;2022-09-09T10:01:50;3.95;;;1.20;;
10645;SDS011;5371;49.782;9.932;2022-09-09T10:04:21;6.20;;;1.30;;
10645;SDS011;5371;49.782;9.932;2022-09-09T10:06:54;5.43;;;1.38;;
10645;SDS011;5371;49.782;9.932;2022-09-09T10:09:28;5.18;;;1.10;;
10645;SDS011;5371;49.782;9.932;2022-09-09T10:12:00;5.18;;;1.17;;
10645;SDS011;5371;49.782;9.932;2022-09-09T10:14:36;4.65;;;1.30;;
10645;SDS011;5371;49.782;9.932;2022-09-09T10:17:15;6.80;;;1.40;;
10645;SDS011;5371;49.782;9.932;2022-09-09T10:19:55;3.08;;;1.20;;
10645;SDS011;5371;49.782;9.932;2022-09-09T10:22:34;4.25;;;1.50;;
10645;SDS011;5371;49.782;9.932;2022-09-09T10:25:12;5.22;;;1.33;;
10645;SDS011;5371;49.782;9.932;2022-09-09T10:27:55;4.05;;;1.30;;
10645;SDS011;5371;49.782;9.932;2022-09-09T10:30:42;7.22;;;1.17;;
10645;SDS011;5371;49.782;9.932;2022-09-09T10:33:20;5.07;;;1.23;;
10645;SDS011;5371;49.782;9.932;2022-09-09T10:35:58;4.40;;;1.35;;
10645;SDS011;5371;49.782;9.932;2022-09-09T10:38:39;4.20;;;1.30;;
10645;SDS011;5371;49.782;9.932;2022-09-09T10:41:14;8.05;;;1.27;;
10645;SDS011;5371;49.782;9.932;2022-09-09T10:43:55;7.25;;;1.50;;
10645;SDS011;5371;49.782;9.932;2022-09-09T10:46:34;5.53;;;1.60;;
10645;SDS011;5371;49.782;9.932;2022-09-09T10:49:12;5.43;;;1.50;;
10645;SDS011;5371;49.782;9.932;2022-09-09T10:51:50;8.50;;;1.48;;
10645;SDS011;5371;49.782;9.932;2022-09-09T10:54:28;3.40;;;1.17;;
10645;SDS011;5371;49.782;9.932;2022-09-09T10:57:03;4.20;;;0.90;;
10645;SDS011;5371;49.782;9.932;2022-09-09T10:59:37;3.90;;;1.10;;
10645;SDS011;5371;49.782;9.932;2022-09-09T11:02:12;5.60;;;1.17;;
10645;SDS011;5371;49.782;9.932;2022-09-09T11:04:45;5.63;;;1.10;;
10645;SDS011;5371;49.782;9.932;2022-09-09T11:07:21;2.22;;;0.93;;
10645;SDS011;5371;49.782;9.932;2022-09-09T11:09:58;2.30;;;0.90;;
10645;SDS011;5371;49.782;9.932;2022-09-09T11:12:29;3.60;;;1.35;;
10645;SDS011;5371;49.782;9.932;2022-09-09T11:15:02;2.10;;;0.90;;
10645;SDS011;5371;49.782;9.932;2022-09-09T11:17:33;4.57;;;0.98;;
10645;SDS011;5371;49.782;9.932;2022-09-09T11:20:10;1.70;;;0.85;;
10645;SDS011;5371;49.782;9.932;2022-09-09T11:22:39;4.53;;;1.10;;
10645;SDS011;5371;49.782;9.932;2022-09-09T11:25:15;2.60;;;1.33;;
10645;SDS011;5371;49.782;9.932;2022-09-09T11:27:49;6.07;;;1.52;;
10645;SDS011;5371;49.782;9.932;2022-09-09T11:30:34;6.65;;;2.10;;
10645;SDS011;5371;49.782;9.932;2022-09-09T11:33:18;2.55;;;1.40;;
10645;SDS011;5371;49.782;9.932;2022-09-09T11:36:12;3.33;;;1.40;;
10645;SDS011;5371;49.782;9.932;2022-09-09T11:38:56;4.18;;;1.40;;
10645;SDS011;5371;49.782;9.932;2022-09-09T11:41:33;3.45;;;1.20;;
10645;SDS011;5371;49.782;9.932;2022-09-09T11:44:09;2.92;;;1.20;;
10645;SDS011;5371;49.782;9.932;2022-09-09T11:46:38;2.67;;;0.93;;
10645;SDS011;5371;49.782;9.932;2022-09-09T11:49:21;3.67;;;1.10;;
10645;SDS011;5371;49.782;9.932;2022-09-09T11:51:53;3.15;;;1.08;;
10645;SDS011;5371;49.782;9.932;2022-09-09T11:54:28;2.65;;;0.90;;
10645;SDS011;5371;49.782;9.932;2022-09-09T11:56:59;1.65;;;1.00;;
10645;SDS011;5371;49.782;9.932;2022-09-09T11:59:30;2.35;;;0.93;;
10645;SDS011;5371;49.782;9.932;2022-09-09T12:01:59;3.35;;;1.00;;
10645;SDS011;5371;49.782;9.932;2022-09-09T12:04:35;4.90;;;1.30;;
10645;SDS011;5371;49.782;9.932;2022-09-09T12:07:05;2.92;;;1.00;;
10645;SDS011;5371;49.782;9.932;2022-09-09T12:09:56;3.40;;;1.20;;
10645;SDS011;5371;49.782;9.932;2022-09-09T12:12:33;3.03;;;1.00;;
10645;SDS011;5371;49.782;9.932;2022-09-09T12:17:54;3.90;;;1.20;;
10645;SDS011;5371;49.782;9.932;2022-09-09T12:20:23;4.60;;;1.10;;
10645;SDS011;5371;49.782;9.932;2022-09-09T12:22:56;6.47;;;1.20;;
10645;SDS011;5371;49.782;9.932;2022-09-09T12:25:36;4.60;;;1.15;;
10645;SDS011;5371;49.782;9.932;2022-09-09T12:28:17;4.00;;;1.10;;
10645;SDS011;5371;49.782;9.932;2022-09-09T12:30:48;1.63;;;1.00;;
10645;SDS011;5371;49.782;9.932;2022-09-09T12:33:22;2.65;;;1.00;;
10645;SDS011;5371;49.782;9.932;2022-09-09T12:35:51;3.80;;;1.10;;
10645;SDS011;5371;49.782;9.932;2022-09-09T12:38:23;4.20;;;1.20;;
10645;SDS011;5371;49.782;9.932;2022-09-09T12:40:56;3.00;;;1.10;;
10645;SDS011;5371;49.782;9.932;2022-09-09T12:43:26;3.90;;;1.23;;
10645;SDS011;5371;49.782;9.932;2022-09-09T12:45:55;2.25;;;1.00;;
10645;SDS011;5371;49.782;9.932;2022-09-09T12:48:28;3.63;;;1.05;;
10645;SDS011;5371;49.782;9.932;2022-09-09T12:50:59;3.10;;;1.10;;
10645;SDS011;5371;49.782;9.932;2022-09-09T12:53:29;2.33;;;0.90;;
10645;SDS011;5371;49.782;9.932;2022-09-09T12:56:00;7.63;;;1.33;;
10645;SDS011;5371;49.782;9.932;2022-09-09T12:58:30;4.07;;;1.05;;
10645;SDS011;5371;49.782;9.932;2022-09-09T13:00:59;3.20;;;1.17;;
10645;SDS011;5371;49.782;9.932;2022-09-09T13:03:30;2.78;;;1.10;;
10645;SDS011;5371;49.782;9.932;2022-09-09T13:06:09;1.77;;;0.90;;
10645;SDS011;5371;49.782;9.932;2022-09-09T13:08:38;3.88;;;1.42;;
10645;SDS011;5371;49.782;9.932;2022-09-09T13:11:06;1.95;;;1.10;;
10645;SDS011;5371;49.782;9.932;2022-09-09T13:13:40;2.58;;;1.10;;
10645;SDS011;5371;49.782;9.932;2022-09-09T13:16:18;2.03;;;1.08;;
10645;SDS011;5371;49.782;9.932;2022-09-09T13:18:51;4.10;;;1.20;;
10645;SDS011;5371;49.782;9.932;2022-09-09T13:21:19;2.78;;;0.85;;
10645;SDS011;5371;49.782;9.932;2022-09-09T13:23:57;2.28;;;1.00;;
10645;SDS011;5371;49.782;9.932;2022-09-09T13:26:28;3.88;;;1.10;;
10645;SDS011;5371;49.782;9.932;2022-09-09T13:29:09;2.88;;;1.10;;
10645;SDS011;5371;49.782;9.932;2022-09-09T13:31:44;1.67;;;0.90;;
10645;SDS011;5371;49.782;9.932;2022-09-09T13:34:12;2.40;;;1.05;;
10645;SDS011;5371;49.782;9.932;2022-09-09T13:36:41;2.88;;;1.00;;
10645;SDS011;5371;49.782;9.932;2022-09-09T13:39:15;3.35;;;0.90;;
10645;SDS011;5371;49.782;9.932;2022-09-09T13:41:44;2.30;;;0.90;;
10645;SDS011;5371;49.782;9.932;2022-09-09T13:44:17;3.72;;;1.08;;
10645;SDS011;5371;49.782;9.932;2022-09-09T13:46:58;1.95;;;1.02;;
10645;SDS011;5371;49.782;9.932;2022-09-09T13:49:27;3.28;;;0.80;;
10645;SDS011;5371;49.782;9.932;2022-09-09T13:52:03;3.00;;;0.95;;
10645;SDS011;5371;49.782;9.932;2022-09-09T13:54:31;3.75;;;1.05;;
10645;SDS011;5371;49.782;9.932;2022-09-09T13:56:58;1.98;;;0.90;;
10645;SDS011;5371;49.782;9.932;2022-09-09T13:59:27;3.45;;;0.85;;
10645;SDS011;5371;49.782;9.932;2022-09-09T14:01:54;2.55;;;1.08;;
10645;SDS011;5371;49.782;9.932;2022-09-09T14:04:21;3.85;;;1.00;;
10645;SDS011;5371;49.782;9.932;2022-09-09T14:06:49;4.90;;;1.15;;
10645;SDS011;5371;49.782;9.932;2022-09-09T14:09:16;2.83;;;1.23;;
10645;SDS011;5371;49.782;9.932;2022-09-09T14:11:44;2.80;;;1.00;;
10645;SDS011;5371;49.782;9.932;2022-09-09T14:14:12;2.47;;;1.00;;
10645;SDS011;5371;49.782;9.932;2022-09-09T14:16:40;3.08;;;0.93;;
10645;SDS011;5371;49.782;9.932;2022-09-09T14:19:09;3.90;;;1.13;;
10645;SDS011;5371;49.782;9.932;2022-09-09T14:21:38;2.28;;;1.08;;
10645;SDS011;5371;49.782;9.932;2022-09-09T14:24:05;3.20;;;1.05;;
10645;SDS011;5371;49.782;9.932;2022-09-09T14:26:32;3.03;;;1.00;;
10645;SDS011;5371;49.782;9.932;2022-09-09T14:28:59;1.45;;;0.90;;
10645;SDS011;5371;49.782;9.932;2022-09-09T14:31:26;4.57;;;1.38;;
10645;SDS011;5371;49.782;9.932;2022-09-09T14:33:55;2.10;;;0.90;;
10645;SDS011;5371;49.782;9.932;2022-09-09T14:36:22;3.53;;;0.90;;
10645;SDS011;5371;49.782;9.932;2022-09-09T14:38:49;5.63;;;1.20;;
10645;SDS011;5371;49.782;9.932;2022-09-09T14:41:18;3.15;;;1.08;;
10645;SDS011;5371;49.782;9.932;2022-09-09T14:43:47;3.20;;;1.20;;
10645;SDS011;5371;49.782;9.932;2022-09-09T14:46:15;3.60;;;1.13;;
10645;SDS011;5371;49.782;9.932;2022-09-09T14:48:44;3.20;;;1.10;;
10645;SDS011;5371;49.782;9.932;2022-09-09T14:51:15;5.35;;;1.23;;
10645;SDS011;5371;49.782;9.932;2022-09-09T14:53:44;3.28;;;1.33;;
10645;SDS011;5371;49.782;9.932;2022-09-09T14:56:13;9.18;;;1.75;;
10645;SDS011;5371;49.782;9.932;2022-09-09T14:58:41;4.35;;;1.35;;
10645;SDS011;5371;49.782;9.932;2022-09-09T15:01:10;8.88;;;1.42;;
10645;SDS011;5371;49.782;9.932;2022-09-09T15:03:40;7.85;;;1.35;;
10645;SDS011;5371;49.782;9.932;2022-09-09T15:06:18;2.72;;;1.02;;
10645;SDS011;5371;49.782;9.932;2022-09-09T15:08:46;3.45;;;1.05;;
10645;SDS011;5371;49.782;9.932;2022-09-09T15:11:14;2.35;;;1.02;;
10645;SDS011;5371;49.782;9.932;2022-09-09T15:13:42;3.83;;;1.17;;
10645;SDS011;5371;49.782;9.932;2022-09-09T15:16:10;2.88;;;1.20;;
10645;SDS011;5371;49.782;9.932;2022-09-09T15:18:39;3.97;;;1.00;;
10645;SDS011;5371;49.782;9.932;2022-09-09T15:21:08;2.65;;;1.20;;
10645;SDS011;5371;49.782;9.932;2022-09-09T15:23:38;1.95;;;1.05;;
10645;SDS011;5371;49.782;9.932;2022-09-09T15:26:05;4.65;;;1.25;;
10645;SDS011;5371;49.782;9.932;2022-09-09T15:28:33;3.33;;;1.38;;
10645;SDS011;5371;49.782;9.932;2022-09-09T15:31:04;5.05;;;1.25;;
10645;SDS011;5371;49.782;9.932;2022-09-09T15:33:33;3.00;;;1.38;;